Saint Columbans, Nebraska
Current Conditions -  °F | °C
As of 4:58 AM on Saturday 25 Oct 2014 (Local Time) from KOFF Reporting Station
Haze Haze  
Wind Chill: 46°   Ceiling: Unl
Heat Index: 46°   Visibility: 2mi
Dew Point: 46°   Wind: 2mph
Humidity: 100%   Direction: 280°W
Pressure: 30.02"   Gusts: NA
Location:  41.1°N, 95.87°W
Report Text: KOFF 250958Z 28002KT 2SM BR CLR 08/08 A3002 RMK AO2A SLP168
Loading
Personal Weather Stations






























Interactive Weather Map New forecast layout! Learn more

10-Day Weather Forecast

Advertisements
Track Severe Weather on mobile